Whites Crossing, Indiana
Current Conditions -  °F | °C
As of 12:15 PM on Saturday 25 Oct 2014 (Local Time) from KDCY Reporting Station
Clear Clear  
Wind Chill: 68°   Ceiling: Unl
Heat Index: 68°   Visibility: 10mi
Dew Point: 59°   Wind: 7mph
Humidity: 73%   Direction: 230°SW
Pressure: 29.99"   Gusts: NA
Location:  39.0608°N, 87.1852°W
Report Text: KDCY 251615Z AUTO 23006KT 10SM CLR 20/15 A2999 RMK AO2 T02000150
Loading
Personal Weather Stations






























Interactive Weather Map
Tropical Storm Tracking
New forecast layout! Learn more

10-Day Weather Forecast

Advertisements
Track Severe Weather on mobile